sensor_id;sensor_type;location;lat;lon;timestamp;temperature;humidity
4725;DHT22;2376;53.544;10.226;2024-02-15T00:00:29;11.30;99.90
4725;DHT22;2376;53.544;10.226;2024-02-15T00:02:57;11.40;99.90
4725;DHT22;2376;53.544;10.226;2024-02-15T00:05:24;11.40;99.90
4725;DHT22;2376;53.544;10.226;2024-02-15T00:07:51;11.40;99.90
4725;DHT22;2376;53.544;10.226;2024-02-15T00:10:17;11.40;99.90
4725;DHT22;2376;53.544;10.226;2024-02-15T00:12:45;11.40;99.90
4725;DHT22;2376;53.544;10.226;2024-02-15T00:15:13;11.40;99.90
4725;DHT22;2376;53.544;10.226;2024-02-15T00:17:40;11.40;99.90
4725;DHT22;2376;53.544;10.226;2024-02-15T00:20:08;11.40;99.90
4725;DHT22;2376;53.544;10.226;2024-02-15T00:22:35;11.40;99.90
4725;DHT22;2376;53.544;10.226;2024-02-15T00:25:02;11.40;99.90
4725;DHT22;2376;53.544;10.226;2024-02-15T00:27:30;11.40;99.90
4725;DHT22;2376;53.544;10.226;2024-02-15T00:29:58;11.40;99.90
4725;DHT22;2376;53.544;10.226;2024-02-15T00:32:25;11.40;99.90
4725;DHT22;2376;53.544;10.226;2024-02-15T00:34:51;11.40;99.90
4725;DHT22;2376;53.544;10.226;2024-02-15T00:37:20;11.40;99.90
4725;DHT22;2376;53.544;10.226;2024-02-15T00:39:47;11.40;99.90
4725;DHT22;2376;53.544;10.226;2024-02-15T00:42:13;11.40;99.90
4725;DHT22;2376;53.544;10.226;2024-02-15T00:44:41;11.40;99.90
4725;DHT22;2376;53.544;10.226;2024-02-15T00:47:09;11.40;99.90
4725;DHT22;2376;53.544;10.226;2024-02-15T00:49:37;11.40;99.90
4725;DHT22;2376;53.544;10.226;2024-02-15T00:52:05;11.40;99.90
4725;DHT22;2376;53.544;10.226;2024-02-15T00:54:33;11.40;99.90
4725;DHT22;2376;53.544;10.226;2024-02-15T00:56:59;11.40;99.90
4725;DHT22;2376;53.544;10.226;2024-02-15T00:59:26;11.40;99.90
4725;DHT22;2376;53.544;10.226;2024-02-15T01:01:53;11.40;99.90
4725;DHT22;2376;53.544;10.226;2024-02-15T01:04:20;11.40;99.90
4725;DHT22;2376;53.544;10.226;2024-02-15T01:06:47;11.40;99.90
4725;DHT22;2376;53.544;10.226;2024-02-15T01:09:14;11.40;99.90
4725;DHT22;2376;53.544;10.226;2024-02-15T01:11:42;11.40;99.90
4725;DHT22;2376;53.544;10.226;2024-02-15T01:14:09;11.40;99.90
4725;DHT22;2376;53.544;10.226;2024-02-15T01:16:36;11.50;99.90
4725;DHT22;2376;53.544;10.226;2024-02-15T01:19:02;11.50;99.90
4725;DHT22;2376;53.544;10.226;2024-02-15T01:21:30;11.50;99.90
4725;DHT22;2376;53.544;10.226;2024-02-15T01:23:58;11.50;99.90
4725;DHT22;2376;53.544;10.226;2024-02-15T01:26:26;11.50;99.90
4725;DHT22;2376;53.544;10.226;2024-02-15T01:28:54;11.50;99.90
4725;DHT22;2376;53.544;10.226;2024-02-15T01:31:20;11.50;99.90
4725;DHT22;2376;53.544;10.226;2024-02-15T01:33:48;11.50;99.90
4725;DHT22;2376;53.544;10.226;2024-02-15T01:36:15;11.50;99.90
4725;DHT22;2376;53.544;10.226;2024-02-15T01:38:42;11.50;99.90
4725;DHT22;2376;53.544;10.226;2024-02-15T01:41:08;11.50;99.90
4725;DHT22;2376;53.544;10.226;2024-02-15T01:43:35;11.50;99.90
4725;DHT22;2376;53.544;10.226;2024-02-15T01:46:07;11.50;99.90
4725;DHT22;2376;53.544;10.226;2024-02-15T01:48:36;11.50;99.90
4725;DHT22;2376;53.544;10.226;2024-02-15T01:51:03;11.50;99.90
4725;DHT22;2376;53.544;10.226;2024-02-15T01:53:31;11.50;99.90
4725;DHT22;2376;53.544;10.226;2024-02-15T01:55:59;11.50;99.90
4725;DHT22;2376;53.544;10.226;2024-02-15T01:58:27;11.50;99.90
4725;DHT22;2376;53.544;10.226;2024-02-15T02:00:53;11.50;99.90
4725;DHT22;2376;53.544;10.226;2024-02-15T02:03:23;11.50;99.90
4725;DHT22;2376;53.544;10.226;2024-02-15T02:05:49;11.60;99.90
4725;DHT22;2376;53.544;10.226;2024-02-15T02:08:16;11.50;99.90
4725;DHT22;2376;53.544;10.226;2024-02-15T02:10:43;11.50;99.90
4725;DHT22;2376;53.544;10.226;2024-02-15T02:13:11;11.50;99.90
4725;DHT22;2376;53.544;10.226;2024-02-15T02:15:38;11.50;99.90
4725;DHT22;2376;53.544;10.226;2024-02-15T02:18:05;11.50;99.90
4725;DHT22;2376;53.544;10.226;2024-02-15T02:20:35;11.50;99.90
4725;DHT22;2376;53.544;10.226;2024-02-15T02:23:06;11.50;99.90
4725;DHT22;2376;53.544;10.226;2024-02-15T02:25:34;11.50;99.90
4725;DHT22;2376;53.544;10.226;2024-02-15T02:28:01;11.50;99.90
4725;DHT22;2376;53.544;10.226;2024-02-15T02:30:28;11.50;99.90
4725;DHT22;2376;53.544;10.226;2024-02-15T02:32:55;11.60;99.90
4725;DHT22;2376;53.544;10.226;2024-02-15T02:35:24;11.50;99.90
4725;DHT22;2376;53.544;10.226;2024-02-15T02:37:52;11.60;99.90
4725;DHT22;2376;53.544;10.226;2024-02-15T02:40:19;11.60;99.90
4725;DHT22;2376;53.544;10.226;2024-02-15T02:42:49;11.60;99.90
4725;DHT22;2376;53.544;10.226;2024-02-15T02:45:16;11.60;99.90
4725;DHT22;2376;53.544;10.226;2024-02-15T02:47:45;11.60;99.90
4725;DHT22;2376;53.544;10.226;2024-02-15T02:50:12;11.60;99.90
4725;DHT22;2376;53.544;10.226;2024-02-15T02:52:39;11.60;99.90
4725;DHT22;2376;53.544;10.226;2024-02-15T02:55:06;11.60;99.90
4725;DHT22;2376;53.544;10.226;2024-02-15T02:57:34;11.60;99.90
4725;DHT22;2376;53.544;10.226;2024-02-15T03:00:02;11.60;99.90
4725;DHT22;2376;53.544;10.226;2024-02-15T03:02:32;11.60;99.90
4725;DHT22;2376;53.544;10.226;2024-02-15T03:05:01;11.60;99.90
4725;DHT22;2376;53.544;10.226;2024-02-15T03:07:28;11.60;99.90
4725;DHT22;2376;53.544;10.226;2024-02-15T03:09:54;11.60;99.90
4725;DHT22;2376;53.544;10.226;2024-02-15T03:12:21;11.60;99.90
4725;DHT22;2376;53.544;10.226;2024-02-15T03:14:48;11.70;99.90
4725;DHT22;2376;53.544;10.226;2024-02-15T03:17:16;11.60;99.90
4725;DHT22;2376;53.544;10.226;2024-02-15T03:19:42;11.70;99.90
4725;DHT22;2376;53.544;10.226;2024-02-15T03:22:09;11.60;99.90
4725;DHT22;2376;53.544;10.226;2024-02-15T03:24:39;11.70;99.90
4725;DHT22;2376;53.544;10.226;2024-02-15T03:27:05;11.70;99.90
4725;DHT22;2376;53.544;10.226;2024-02-15T03:29:32;11.70;99.90
4725;DHT22;2376;53.544;10.226;2024-02-15T03:32:01;11.60;99.90
4725;DHT22;2376;53.544;10.226;2024-02-15T03:34:30;11.60;99.90
4725;DHT22;2376;53.544;10.226;2024-02-15T03:36:57;11.60;99.90
4725;DHT22;2376;53.544;10.226;2024-02-15T03:39:24;11.60;99.90
4725;DHT22;2376;53.544;10.226;2024-02-15T03:41:51;11.60;99.90
4725;DHT22;2376;53.544;10.226;2024-02-15T03:44:19;11.60;99.90
4725;DHT22;2376;53.544;10.226;2024-02-15T03:46:45;11.70;99.90
4725;DHT22;2376;53.544;10.226;2024-02-15T03:49:16;11.60;99.90
4725;DHT22;2376;53.544;10.226;2024-02-15T03:51:44;11.60;99.90
4725;DHT22;2376;53.544;10.226;2024-02-15T03:54:11;11.60;99.90
4725;DHT22;2376;53.544;10.226;2024-02-15T03:56:46;11.60;99.90
4725;DHT22;2376;53.544;10.226;2024-02-15T03:59:13;11.70;99.90
4725;DHT22;2376;53.544;10.226;2024-02-15T04:01:39;11.60;99.90
4725;DHT22;2376;53.544;10.226;2024-02-15T04:04:06;11.60;99.90
4725;DHT22;2376;53.544;10.226;2024-02-15T04:06:33;11.60;99.90
4725;DHT22;2376;53.544;10.226;2024-02-15T04:09:01;11.60;99.90
4725;DHT22;2376;53.544;10.226;2024-02-15T04:11:28;11.70;99.90
4725;DHT22;2376;53.544;10.226;2024-02-15T04:13:54;11.70;99.90
4725;DHT22;2376;53.544;10.226;2024-02-15T04:16:23;11.70;99.90
4725;DHT22;2376;53.544;10.226;2024-02-15T04:18:51;11.70;99.90
4725;DHT22;2376;53.544;10.226;2024-02-15T04:21:17;11.70;99.90
4725;DHT22;2376;53.544;10.226;2024-02-15T04:23:45;11.70;99.90
4725;DHT22;2376;53.544;10.226;2024-02-15T04:26:13;11.70;99.90
4725;DHT22;2376;53.544;10.226;2024-02-15T04:28:40;11.70;99.90
4725;DHT22;2376;53.544;10.226;2024-02-15T04:31:08;11.70;99.90
4725;DHT22;2376;53.544;10.226;2024-02-15T04:33:37;11.70;99.90
4725;DHT22;2376;53.544;10.226;2024-02-15T04:36:05;11.70;99.90
4725;DHT22;2376;53.544;10.226;2024-02-15T04:38:32;11.70;99.90
4725;DHT22;2376;53.544;10.226;2024-02-15T04:41:00;11.70;99.90
4725;DHT22;2376;53.544;10.226;2024-02-15T04:43:27;11.70;99.90
4725;DHT22;2376;53.544;10.226;2024-02-15T04:45:54;11.70;99.90
4725;DHT22;2376;53.544;10.226;2024-02-15T04:48:21;11.70;99.90
4725;DHT22;2376;53.544;10.226;2024-02-15T04:50:50;11.70;99.90
4725;DHT22;2376;53.544;10.226;2024-02-15T04:53:17;11.70;99.90
4725;DHT22;2376;53.544;10.226;2024-02-15T04:55:44;11.80;99.90
4725;DHT22;2376;53.544;10.226;2024-02-15T04:58:11;11.80;99.90
4725;DHT22;2376;53.544;10.226;2024-02-15T05:00:39;11.80;99.90
4725;DHT22;2376;53.544;10.226;2024-02-15T05:03:06;11.80;99.90
4725;DHT22;2376;53.544;10.226;2024-02-15T05:05:33;11.80;99.90
4725;DHT22;2376;53.544;10.226;2024-02-15T05:08:00;11.70;99.90
4725;DHT22;2376;53.544;10.226;2024-02-15T05:10:27;11.80;99.90
4725;DHT22;2376;53.544;10.226;2024-02-15T05:12:53;11.80;99.90
4725;DHT22;2376;53.544;10.226;2024-02-15T05:15:22;11.80;99.90
4725;DHT22;2376;53.544;10.226;2024-02-15T05:17:51;11.80;99.90
4725;DHT22;2376;53.544;10.226;2024-02-15T05:20:19;11.80;99.90
4725;DHT22;2376;53.544;10.226;2024-02-15T05:22:46;11.80;99.90
4725;DHT22;2376;53.544;10.226;2024-02-15T05:25:13;11.80;99.90
4725;DHT22;2376;53.544;10.226;2024-02-15T05:27:41;11.80;99.90
4725;DHT22;2376;53.544;10.226;2024-02-15T05:30:09;11.80;99.90
4725;DHT22;2376;53.544;10.226;2024-02-15T05:32:36;11.80;99.90
4725;DHT22;2376;53.544;10.226;2024-02-15T05:35:08;11.80;99.90
4725;DHT22;2376;53.544;10.226;2024-02-15T05:37:35;11.80;99.90
4725;DHT22;2376;53.544;10.226;2024-02-15T05:40:02;11.80;99.90
4725;DHT22;2376;53.544;10.226;2024-02-15T05:42:30;11.80;99.90
4725;DHT22;2376;53.544;10.226;2024-02-15T05:45:14;11.80;99.90
4725;DHT22;2376;53.544;10.226;2024-02-15T05:47:47;11.80;99.90
4725;DHT22;2376;53.544;10.226;2024-02-15T05:50:15;11.80;99.90
4725;DHT22;2376;53.544;10.226;2024-02-15T05:52:45;11.90;99.90
4725;DHT22;2376;53.544;10.226;2024-02-15T05:55:12;11.90;99.90
4725;DHT22;2376;53.544;10.226;2024-02-15T05:57:42;11.90;99.90
4725;DHT22;2376;53.544;10.226;2024-02-15T06:00:10;11.90;99.90
4725;DHT22;2376;53.544;10.226;2024-02-15T06:02:37;11.90;99.90
4725;DHT22;2376;53.544;10.226;2024-02-15T06:05:05;11.90;99.90
4725;DHT22;2376;53.544;10.226;2024-02-15T06:07:33;11.90;99.90
4725;DHT22;2376;53.544;10.226;2024-02-15T06:10:00;11.90;99.90
4725;DHT22;2376;53.544;10.226;2024-02-15T06:12:28;11.90;99.90
4725;DHT22;2376;53.544;10.226;2024-02-15T06:14:55;11.90;99.90
4725;DHT22;2376;53.544;10.226;2024-02-15T06:17:22;11.90;99.90
4725;DHT22;2376;53.544;10.226;2024-02-15T06:19:48;11.90;99.90
4725;DHT22;2376;53.544;10.226;2024-02-15T06:22:15;11.90;99.90
4725;DHT22;2376;53.544;10.226;2024-02-15T06:24:43;11.90;99.90
4725;DHT22;2376;53.544;10.226;2024-02-15T06:27:10;11.90;99.90
4725;DHT22;2376;53.544;10.226;2024-02-15T06:29:38;11.80;99.90
4725;DHT22;2376;53.544;10.226;2024-02-15T06:32:22;11.80;99.90
4725;DHT22;2376;53.544;10.226;2024-02-15T06:35:07;11.80;99.90
4725;DHT22;2376;53.544;10.226;2024-02-15T06:37:56;11.80;99.90
4725;DHT22;2376;53.544;10.226;2024-02-15T06:40:42;11.80;99.90
4725;DHT22;2376;53.544;10.226;2024-02-15T06:43:10;11.80;99.90
4725;DHT22;2376;53.544;10.226;2024-02-15T06:45:37;11.80;99.90
4725;DHT22;2376;53.544;10.226;2024-02-15T06:48:10;11.90;99.90
4725;DHT22;2376;53.544;10.226;2024-02-15T06:50:37;11.90;99.90
4725;DHT22;2376;53.544;10.226;2024-02-15T06:53:04;11.80;99.90
4725;DHT22;2376;53.544;10.226;2024-02-15T06:55:31;11.90;99.90
4725;DHT22;2376;53.544;10.226;2024-02-15T06:58:00;11.80;99.90
4725;DHT22;2376;53.544;10.226;2024-02-15T07:00:27;11.90;99.90
4725;DHT22;2376;53.544;10.226;2024-02-15T07:02:55;11.80;99.90
4725;DHT22;2376;53.544;10.226;2024-02-15T07:05:22;11.80;99.90
4725;DHT22;2376;53.544;10.226;2024-02-15T07:07:49;11.90;99.90
4725;DHT22;2376;53.544;10.226;2024-02-15T07:10:16;11.90;99.90
4725;DHT22;2376;53.544;10.226;2024-02-15T07:12:43;11.90;99.90
4725;DHT22;2376;53.544;10.226;2024-02-15T07:15:12;11.80;99.90
4725;DHT22;2376;53.544;10.226;2024-02-15T07:17:38;11.90;99.90
4725;DHT22;2376;53.544;10.226;2024-02-15T07:20:06;11.90;99.90
4725;DHT22;2376;53.544;10.226;2024-02-15T07:22:35;11.90;99.90
4725;DHT22;2376;53.544;10.226;2024-02-15T07:25:05;11.90;99.90
4725;DHT22;2376;53.544;10.226;2024-02-15T07:27:34;11.90;99.90
4725;DHT22;2376;53.544;10.226;2024-02-15T07:30:00;11.90;99.90
4725;DHT22;2376;53.544;10.226;2024-02-15T07:32:30;11.90;99.90
4725;DHT22;2376;53.544;10.226;2024-02-15T07:35:00;11.90;99.90
4725;DHT22;2376;53.544;10.226;2024-02-15T07:37:27;11.90;99.90
4725;DHT22;2376;53.544;10.226;2024-02-15T07:39:54;12.00;99.90
4725;DHT22;2376;53.544;10.226;2024-02-15T07:42:21;11.90;99.90
4725;DHT22;2376;53.544;10.226;2024-02-15T07:44:50;12.00;99.90
4725;DHT22;2376;53.544;10.226;2024-02-15T07:47:18;12.00;99.90
4725;DHT22;2376;53.544;10.226;2024-02-15T07:49:50;12.00;99.90
4725;DHT22;2376;53.544;10.226;2024-02-15T07:52:17;12.00;99.90
4725;DHT22;2376;53.544;10.226;2024-02-15T07:54:44;12.00;99.90
4725;DHT22;2376;53.544;10.226;2024-02-15T07:57:11;12.00;99.90
4725;DHT22;2376;53.544;10.226;2024-02-15T07:59:39;12.10;99.90
4725;DHT22;2376;53.544;10.226;2024-02-15T08:02:07;12.10;99.90
4725;DHT22;2376;53.544;10.226;2024-02-15T08:04:33;12.10;99.90
4725;DHT22;2376;53.544;10.226;2024-02-15T08:07:07;12.10;99.90
4725;DHT22;2376;53.544;10.226;2024-02-15T08:09:36;12.10;99.90
4725;DHT22;2376;53.544;10.226;2024-02-15T08:12:03;12.10;99.90
4725;DHT22;2376;53.544;10.226;2024-02-15T08:14:30;12.10;99.90
4725;DHT22;2376;53.544;10.226;2024-02-15T08:16:57;12.10;99.90
4725;DHT22;2376;53.544;10.226;2024-02-15T08:19:23;12.10;99.90
4725;DHT22;2376;53.544;10.226;2024-02-15T08:21:50;12.20;99.90
4725;DHT22;2376;53.544;10.226;2024-02-15T08:24:18;12.10;99.90
4725;DHT22;2376;53.544;10.226;2024-02-15T08:26:45;12.20;99.90
4725;DHT22;2376;53.544;10.226;2024-02-15T08:29:13;12.20;99.90
4725;DHT22;2376;53.544;10.226;2024-02-15T08:31:40;12.10;99.90
4725;DHT22;2376;53.544;10.226;2024-02-15T08:34:07;12.20;99.90
4725;DHT22;2376;53.544;10.226;2024-02-15T08:36:39;12.20;99.90
4725;DHT22;2376;53.544;10.226;2024-02-15T08:39:06;12.20;99.90
4725;DHT22;2376;53.544;10.226;2024-02-15T08:41:35;12.20;99.90
4725;DHT22;2376;53.544;10.226;2024-02-15T08:44:01;12.20;99.90
4725;DHT22;2376;53.544;10.226;2024-02-15T08:46:33;12.20;99.90
4725;DHT22;2376;53.544;10.226;2024-02-15T08:49:01;12.20;99.90
4725;DHT22;2376;53.544;10.226;2024-02-15T08:51:28;12.20;99.90
4725;DHT22;2376;53.544;10.226;2024-02-15T08:53:55;12.20;99.90
4725;DHT22;2376;53.544;10.226;2024-02-15T08:56:22;12.20;99.90
4725;DHT22;2376;53.544;10.226;2024-02-15T08:58:50;12.30;99.90
4725;DHT22;2376;53.544;10.226;2024-02-15T09:01:17;12.30;99.90
4725;DHT22;2376;53.544;10.226;2024-02-15T09:03:43;12.30;99.90
4725;DHT22;2376;53.544;10.226;2024-02-15T09:06:11;12.30;99.90
4725;DHT22;2376;53.544;10.226;2024-02-15T09:08:38;12.40;99.90
4725;DHT22;2376;53.544;10.226;2024-02-15T09:11:05;12.40;99.90
4725;DHT22;2376;53.544;10.226;2024-02-15T09:13:31;12.40;99.90
4725;DHT22;2376;53.544;10.226;2024-02-15T09:16:00;12.40;99.90
4725;DHT22;2376;53.544;10.226;2024-02-15T09:18:28;12.40;99.90
4725;DHT22;2376;53.544;10.226;2024-02-15T09:20:55;12.40;99.90
4725;DHT22;2376;53.544;10.226;2024-02-15T09:23:22;12.40;99.90
4725;DHT22;2376;53.544;10.226;2024-02-15T09:25:49;12.50;99.90
4725;DHT22;2376;53.544;10.226;2024-02-15T09:28:17;12.50;99.90
4725;DHT22;2376;53.544;10.226;2024-02-15T09:30:47;12.50;99.90
4725;DHT22;2376;53.544;10.226;2024-02-15T09:33:15;12.50;99.90
4725;DHT22;2376;53.544;10.226;2024-02-15T09:35:42;12.50;99.90
4725;DHT22;2376;53.544;10.226;2024-02-15T09:38:09;12.50;99.90
4725;DHT22;2376;53.544;10.226;2024-02-15T09:40:35;12.50;99.90
4725;DHT22;2376;53.544;10.226;2024-02-15T09:43:02;12.60;99.90
4725;DHT22;2376;53.544;10.226;2024-02-15T09:45:29;12.60;99.90
4725;DHT22;2376;53.544;10.226;2024-02-15T09:47:59;12.60;99.90
4725;DHT22;2376;53.544;10.226;2024-02-15T09:50:34;12.60;99.90
4725;DHT22;2376;53.544;10.226;2024-02-15T09:53:01;12.60;99.90
4725;DHT22;2376;53.544;10.226;2024-02-15T09:55:29;12.60;99.90
4725;DHT22;2376;53.544;10.226;2024-02-15T09:57:55;12.60;99.90
4725;DHT22;2376;53.544;10.226;2024-02-15T10:00:23;12.70;99.90
4725;DHT22;2376;53.544;10.226;2024-02-15T10:02:51;12.70;99.90
4725;DHT22;2376;53.544;10.226;2024-02-15T10:05:20;12.70;99.90
4725;DHT22;2376;53.544;10.226;2024-02-15T10:07:49;12.70;99.90
4725;DHT22;2376;53.544;10.226;2024-02-15T10:10:17;12.70;99.90
4725;DHT22;2376;53.544;10.226;2024-02-15T10:12:45;12.70;99.90
4725;DHT22;2376;53.544;10.226;2024-02-15T10:15:27;12.70;99.90
4725;DHT22;2376;53.544;10.226;2024-02-15T10:17:55;12.70;99.90
4725;DHT22;2376;53.544;10.226;2024-02-15T10:20:22;12.70;99.90
4725;DHT22;2376;53.544;10.226;2024-02-15T10:22:52;12.80;99.90
4725;DHT22;2376;53.544;10.226;2024-02-15T10:25:20;12.80;99.90
4725;DHT22;2376;53.544;10.226;2024-02-15T10:27:48;12.80;99.90
4725;DHT22;2376;53.544;10.226;2024-02-15T10:30:16;12.80;99.90
4725;DHT22;2376;53.544;10.226;2024-02-15T10:32:43;12.80;99.90
4725;DHT22;2376;53.544;10.226;2024-02-15T10:35:10;12.80;99.90
4725;DHT22;2376;53.544;10.226;2024-02-15T10:37:41;12.80;99.90
4725;DHT22;2376;53.544;10.226;2024-02-15T10:40:11;12.80;99.90
4725;DHT22;2376;53.544;10.226;2024-02-15T10:42:40;12.80;99.90
4725;DHT22;2376;53.544;10.226;2024-02-15T10:45:08;12.80;99.90
4725;DHT22;2376;53.544;10.226;2024-02-15T10:47:37;12.80;99.90
4725;DHT22;2376;53.544;10.226;2024-02-15T10:50:06;12.80;99.90
4725;DHT22;2376;53.544;10.226;2024-02-15T10:52:36;12.90;99.90
4725;DHT22;2376;53.544;10.226;2024-02-15T10:55:12;12.90;99.90
4725;DHT22;2376;53.544;10.226;2024-02-15T10:57:46;12.90;99.90
4725;DHT22;2376;53.544;10.226;2024-02-15T11:00:16;12.90;99.90
4725;DHT22;2376;53.544;10.226;2024-02-15T11:02:54;13.00;99.90
4725;DHT22;2376;53.544;10.226;2024-02-15T11:05:25;13.00;99.90
4725;DHT22;2376;53.544;10.226;2024-02-15T11:07:52;13.00;99.90
4725;DHT22;2376;53.544;10.226;2024-02-15T11:10:22;13.10;99.90
4725;DHT22;2376;53.544;10.226;2024-02-15T11:12:50;13.10;99.90
4725;DHT22;2376;53.544;10.226;2024-02-15T11:15:42;13.10;99.90
4725;DHT22;2376;53.544;10.226;2024-02-15T11:18:43;13.20;99.90
4725;DHT22;2376;53.544;10.226;2024-02-15T11:21:11;13.20;99.90
4725;DHT22;2376;53.544;10.226;2024-02-15T11:23:38;13.20;99.90
4725;DHT22;2376;53.544;10.226;2024-02-15T11:26:08;13.30;99.90
4725;DHT22;2376;53.544;10.226;2024-02-15T11:28:43;13.30;99.90
4725;DHT22;2376;53.544;10.226;2024-02-15T11:34:42;13.30;99.90
4725;DHT22;2376;53.544;10.226;2024-02-15T11:37:51;13.30;99.90
4725;DHT22;2376;53.544;10.226;2024-02-15T11:40:19;13.30;99.90
4725;DHT22;2376;53.544;10.226;2024-02-15T11:42:50;13.30;99.90
4725;DHT22;2376;53.544;10.226;2024-02-15T11:45:18;13.30;99.90
4725;DHT22;2376;53.544;10.226;2024-02-15T11:47:47;13.30;99.90
4725;DHT22;2376;53.544;10.226;2024-02-15T11:50:16;13.30;99.90
4725;DHT22;2376;53.544;10.226;2024-02-15T11:52:43;13.30;99.90
4725;DHT22;2376;53.544;10.226;2024-02-15T11:55:11;13.30;99.90
4725;DHT22;2376;53.544;10.226;2024-02-15T11:57:38;13.30;99.90
4725;DHT22;2376;53.544;10.226;2024-02-15T12:00:21;13.30;99.90
4725;DHT22;2376;53.544;10.226;2024-02-15T12:03:05;13.30;99.90
4725;DHT22;2376;53.544;10.226;2024-02-15T12:05:50;13.30;99.90
4725;DHT22;2376;53.544;10.226;2024-02-15T12:08:35;13.30;99.90
4725;DHT22;2376;53.544;10.226;2024-02-15T12:11:19;13.30;99.90
4725;DHT22;2376;53.544;10.226;2024-02-15T12:14:03;13.30;99.90
4725;DHT22;2376;53.544;10.226;2024-02-15T12:16:59;13.30;99.90
4725;DHT22;2376;53.544;10.226;2024-02-15T12:19:43;13.30;99.90
4725;DHT22;2376;53.544;10.226;2024-02-15T12:22:10;13.20;99.90
4725;DHT22;2376;53.544;10.226;2024-02-15T12:24:37;13.20;99.90
4725;DHT22;2376;53.544;10.226;2024-02-15T12:27:04;13.20;99.90
4725;DHT22;2376;53.544;10.226;2024-02-15T12:29:31;13.20;99.90
4725;DHT22;2376;53.544;10.226;2024-02-15T12:32:02;13.20;99.90
4725;DHT22;2376;53.544;10.226;2024-02-15T12:34:29;13.20;99.90
4725;DHT22;2376;53.544;10.226;2024-02-15T12:37:05;13.20;99.90
4725;DHT22;2376;53.544;10.226;2024-02-15T12:39:34;13.20;99.90
4725;DHT22;2376;53.544;10.226;2024-02-15T12:42:02;13.20;99.90
4725;DHT22;2376;53.544;10.226;2024-02-15T12:44:29;13.20;99.90
4725;DHT22;2376;53.544;10.226;2024-02-15T12:46:58;13.20;99.90
4725;DHT22;2376;53.544;10.226;2024-02-15T12:49:30;13.20;99.90
4725;DHT22;2376;53.544;10.226;2024-02-15T12:52:35;13.20;99.90
4725;DHT22;2376;53.544;10.226;2024-02-15T12:55:13;13.20;99.90
4725;DHT22;2376;53.544;10.226;2024-02-15T12:57:40;13.20;99.90
4725;DHT22;2376;53.544;10.226;2024-02-15T13:00:11;13.20;99.90
4725;DHT22;2376;53.544;10.226;2024-02-15T13:02:43;13.10;99.90
4725;DHT22;2376;53.544;10.226;2024-02-15T13:05:11;13.10;99.90
4725;DHT22;2376;53.544;10.226;2024-02-15T13:07:39;13.20;99.90
4725;DHT22;2376;53.544;10.226;2024-02-15T13:10:06;13.10;99.90
4725;DHT22;2376;53.544;10.226;2024-02-15T13:12:34;13.10;99.90
4725;DHT22;2376;53.544;10.226;2024-02-15T13:15:02;13.10;99.90
4725;DHT22;2376;53.544;10.226;2024-02-15T13:17:30;13.10;99.90
4725;DHT22;2376;53.544;10.226;2024-02-15T13:19:57;13.10;99.90
4725;DHT22;2376;53.544;10.226;2024-02-15T13:22:31;13.20;99.90
4725;DHT22;2376;53.544;10.226;2024-02-15T13:24:58;13.10;99.90
4725;DHT22;2376;53.544;10.226;2024-02-15T13:27:25;13.20;99.90
4725;DHT22;2376;53.544;10.226;2024-02-15T13:29:52;13.10;99.90
4725;DHT22;2376;53.544;10.226;2024-02-15T13:32:19;13.10;99.90
4725;DHT22;2376;53.544;10.226;2024-02-15T13:34:47;13.10;99.90
4725;DHT22;2376;53.544;10.226;2024-02-15T13:37:17;13.10;99.90
4725;DHT22;2376;53.544;10.226;2024-02-15T13:39:47;13.10;99.90
4725;DHT22;2376;53.544;10.226;2024-02-15T13:42:13;13.10;99.90
4725;DHT22;2376;53.544;10.226;2024-02-15T13:44:40;13.10;99.90
4725;DHT22;2376;53.544;10.226;2024-02-15T13:47:07;13.10;99.90
4725;DHT22;2376;53.544;10.226;2024-02-15T13:49:33;13.10;99.90
4725;DHT22;2376;53.544;10.226;2024-02-15T13:52:00;13.00;99.90
4725;DHT22;2376;53.544;10.226;2024-02-15T13:54:29;13.00;99.90
4725;DHT22;2376;53.544;10.226;2024-02-15T13:56:57;13.00;99.90
4725;DHT22;2376;53.544;10.226;2024-02-15T13:59:24;13.00;99.90
4725;DHT22;2376;53.544;10.226;2024-02-15T14:01:52;13.00;99.90
4725;DHT22;2376;53.544;10.226;2024-02-15T14:04:19;13.00;99.90
4725;DHT22;2376;53.544;10.226;2024-02-15T14:06:46;13.00;99.90
4725;DHT22;2376;53.544;10.226;2024-02-15T14:09:14;13.10;99.90
4725;DHT22;2376;53.544;10.226;2024-02-15T14:11:42;13.00;99.90
4725;DHT22;2376;53.544;10.226;2024-02-15T14:14:10;13.00;99.90
4725;DHT22;2376;53.544;10.226;2024-02-15T14:16:37;13.00;99.90
4725;DHT22;2376;53.544;10.226;2024-02-15T14:19:04;13.00;99.90
4725;DHT22;2376;53.544;10.226;2024-02-15T14:21:31;13.00;99.90
4725;DHT22;2376;53.544;10.226;2024-02-15T14:24:05;13.00;99.90
4725;DHT22;2376;53.544;10.226;2024-02-15T14:26:33;13.00;99.90
4725;DHT22;2376;53.544;10.226;2024-02-15T14:29:01;13.00;99.90
4725;DHT22;2376;53.544;10.226;2024-02-15T14:31:30;13.00;99.90
4725;DHT22;2376;53.544;10.226;2024-02-15T14:34:14;13.00;99.90
4725;DHT22;2376;53.544;10.226;2024-02-15T14:36:43;13.00;99.90
4725;DHT22;2376;53.544;10.226;2024-02-15T14:39:11;13.00;99.90
4725;DHT22;2376;53.544;10.226;2024-02-15T14:41:39;13.00;99.90
4725;DHT22;2376;53.544;10.226;2024-02-15T14:44:05;13.00;99.90
4725;DHT22;2376;53.544;10.226;2024-02-15T14:46:33;13.00;99.90
4725;DHT22;2376;53.544;10.226;2024-02-15T14:49:01;13.00;99.90
4725;DHT22;2376;53.544;10.226;2024-02-15T14:51:27;13.00;99.90
4725;DHT22;2376;53.544;10.226;2024-02-15T14:53:54;13.00;99.90
4725;DHT22;2376;53.544;10.226;2024-02-15T14:56:21;13.00;99.90
4725;DHT22;2376;53.544;10.226;2024-02-15T14:58:48;13.00;99.90
4725;DHT22;2376;53.544;10.226;2024-02-15T15:01:14;13.00;99.90
4725;DHT22;2376;53.544;10.226;2024-02-15T15:03:42;13.00;99.90
4725;DHT22;2376;53.544;10.226;2024-02-15T15:06:09;13.00;99.90
4725;DHT22;2376;53.544;10.226;2024-02-15T15:08:53;13.00;99.90
4725;DHT22;2376;53.544;10.226;2024-02-15T15:11:37;13.00;99.90
4725;DHT22;2376;53.544;10.226;2024-02-15T15:14:21;13.00;99.90
4725;DHT22;2376;53.544;10.226;2024-02-15T15:16:49;13.00;99.90
4725;DHT22;2376;53.544;10.226;2024-02-15T15:19:17;13.00;99.90
4725;DHT22;2376;53.544;10.226;2024-02-15T15:21:44;13.00;99.90
4725;DHT22;2376;53.544;10.226;2024-02-15T15:24:12;13.00;99.90
4725;DHT22;2376;53.544;10.226;2024-02-15T15:26:38;13.00;99.90
4725;DHT22;2376;53.544;10.226;2024-02-15T15:29:06;12.90;99.90
4725;DHT22;2376;53.544;10.226;2024-02-15T15:31:33;13.00;99.90
4725;DHT22;2376;53.544;10.226;2024-02-15T15:34:00;12.90;99.90
4725;DHT22;2376;53.544;10.226;2024-02-15T15:36:28;12.90;99.90
4725;DHT22;2376;53.544;10.226;2024-02-15T15:38:56;12.90;99.90
4725;DHT22;2376;53.544;10.226;2024-02-15T15:41:22;12.90;99.90
4725;DHT22;2376;53.544;10.226;2024-02-15T15:43:49;12.90;99.90
4725;DHT22;2376;53.544;10.226;2024-02-15T15:46:16;12.90;99.90
4725;DHT22;2376;53.544;10.226;2024-02-15T15:48:43;12.90;99.90
4725;DHT22;2376;53.544;10.226;2024-02-15T15:51:10;12.90;99.90
4725;DHT22;2376;53.544;10.226;2024-02-15T15:53:38;12.90;99.90
4725;DHT22;2376;53.544;10.226;2024-02-15T15:56:06;12.90;99.90
4725;DHT22;2376;53.544;10.226;2024-02-15T15:58:32;12.90;99.90